createdAt,value
2022-08-17T00:00:04.183Z,88
2022-08-17T00:00:49.404Z,87
2022-08-17T00:01:08.858Z,67
2022-08-17T00:01:51.532Z,57
2022-08-17T00:02:21.245Z,92
2022-08-17T00:02:36.775Z,67
2022-08-17T00:03:02.758Z,88
2022-08-17T00:03:32.018Z,88
2022-08-17T00:04:06.931Z,83
2022-08-17T00:04:34.955Z,83
2022-08-17T00:04:52.133Z,82
2022-08-17T00:05:23.744Z,82
2022-08-17T00:05:41.983Z,87
2022-08-17T00:06:11.956Z,81
2022-08-17T00:06:35.364Z,80
2022-08-17T00:07:00.584Z,71
2022-08-17T00:07:32.092Z,74
2022-08-17T00:08:04.009Z,82
2022-08-17T00:08:34.992Z,83
2022-08-17T00:08:54.397Z,83
2022-08-17T00:09:23.753Z,83
2022-08-17T00:09:43.021Z,83
2022-08-17T00:10:12.255Z,82
2022-08-17T00:10:35.988Z,83
2022-08-17T00:10:59.812Z,82
2022-08-17T00:11:31.877Z,83
2022-08-17T00:12:40.725Z,82
2022-08-17T00:12:52.338Z,68
2022-08-17T00:13:24.512Z,68
2022-08-17T00:13:42.930Z,67
2022-08-17T00:14:12.018Z,67
2022-08-17T00:14:35.029Z,69
2022-08-17T00:14:59.804Z,78
2022-08-17T00:15:32.343Z,77
2022-08-17T00:16:04.072Z,77
2022-08-17T00:16:56.720Z,79
2022-08-17T00:17:08.754Z,69
2022-08-17T00:17:34.965Z,70
2022-08-17T00:17:55.818Z,64
2022-08-17T00:18:57.524Z,66
2022-08-17T00:19:16.329Z,73
2022-08-17T00:19:34.934Z,80
2022-08-17T00:20:05.239Z,79
2022-08-17T00:20:35.163Z,79
2022-08-17T00:21:10.563Z,78
2022-08-17T00:21:25.248Z,69
2022-08-17T00:22:29.379Z,81
2022-08-17T00:22:43.811Z,69
2022-08-17T00:23:15.851Z,77
2022-08-17T00:23:35.299Z,82
2022-08-17T00:24:04.043Z,82
2022-08-17T00:24:34.934Z,82
2022-08-17T00:24:52.138Z,72
2022-08-17T00:25:23.730Z,83
2022-08-17T00:25:41.075Z,87
2022-08-17T00:26:14.309Z,89
2022-08-17T00:26:45.077Z,87
2022-08-17T00:26:59.831Z,87
2022-08-17T00:27:31.951Z,88
2022-08-17T00:28:04.088Z,66
2022-08-17T00:28:35.739Z,98
2022-08-17T00:29:09.315Z,81
2022-08-17T00:29:34.934Z,57
2022-08-17T00:29:55.790Z,79
2022-08-17T00:30:27.835Z,78
2022-08-17T00:30:59.823Z,64
2022-08-17T00:31:33.054Z,70
2022-08-17T00:33:12.481Z,62
2022-08-17T00:33:23.900Z,53
2022-08-17T00:33:41.635Z,45
2022-08-17T00:34:11.823Z,83
2022-08-17T00:34:36.475Z,84
2022-08-17T00:34:59.799Z,30
2022-08-17T00:35:33.006Z,71
2022-08-17T00:36:04.054Z,2
2022-08-17T00:36:35.133Z,92
2022-08-17T00:37:07.258Z,62
2022-08-17T00:37:23.635Z,77
2022-08-17T00:37:41.569Z,349
2022-08-17T00:38:11.895Z,91
2022-08-17T00:38:35.743Z,131
2022-08-17T00:39:00.665Z,0
2022-08-17T00:39:32.155Z,115
2022-08-17T00:40:04.191Z,39
2022-08-17T00:40:40.059Z,96
2022-08-17T00:41:07.863Z,37
2022-08-17T00:41:34.978Z,79
2022-08-17T00:41:55.762Z,55
2022-08-17T00:42:31.149Z,66
2022-08-17T00:42:59.784Z,75
2022-08-17T00:43:31.834Z,44
2022-08-17T00:44:05.520Z,76
2022-08-17T00:44:35.794Z,66
2022-08-17T00:45:07.837Z,53
2022-08-17T00:45:35.994Z,93
2022-08-17T00:45:55.725Z,77
2022-08-17T00:46:27.743Z,61
2022-08-17T00:46:59.830Z,7
2022-08-17T00:47:31.816Z,90
2022-08-17T00:48:04.055Z,352
2022-08-17T00:48:35.023Z,97
2022-08-17T00:49:07.144Z,47
2022-08-17T00:49:24.256Z,42
2022-08-17T00:49:41.311Z,34
2022-08-17T00:50:13.226Z,48
2022-08-17T00:50:36.167Z,29
2022-08-17T00:50:59.765Z,59
2022-08-17T00:51:33.104Z,44
2022-08-17T00:52:04.020Z,68
2022-08-17T00:52:35.726Z,66
2022-08-17T00:53:07.880Z,36
2022-08-17T00:53:35.578Z,43
2022-08-17T00:53:55.776Z,114
2022-08-17T00:54:28.383Z,92
2022-08-17T00:54:59.781Z,72
2022-08-17T00:55:31.762Z,55
2022-08-17T00:56:04.096Z,121
2022-08-17T00:56:36.008Z,74
2022-08-17T00:57:07.719Z,74
2022-08-17T00:57:36.306Z,73
2022-08-17T00:57:57.610Z,73
2022-08-17T00:58:35.970Z,54
2022-08-17T00:59:00.060Z,66
2022-08-17T00:59:32.572Z,69
2022-08-17T01:00:04.184Z,20
2022-08-17T01:00:35.016Z,319
2022-08-17T01:01:07.184Z,331
2022-08-17T01:01:23.725Z,51
2022-08-17T01:01:41.026Z,1
2022-08-17T01:02:11.851Z,82
2022-08-17T01:02:42.532Z,32
2022-08-17T01:02:59.797Z,43
2022-08-17T01:03:31.825Z,4
2022-08-17T01:04:03.975Z,354
2022-08-17T01:04:36.429Z,35
2022-08-17T01:05:07.784Z,43
2022-08-17T01:05:34.982Z,22
2022-08-17T01:05:57.892Z,41
2022-08-17T01:06:27.836Z,97
2022-08-17T01:06:59.786Z,48
2022-08-17T01:07:33.012Z,84
2022-08-17T01:08:04.290Z,45
2022-08-17T01:08:35.802Z,62
2022-08-17T01:09:07.681Z,71
2022-08-17T01:09:36.308Z,70
2022-08-17T01:09:55.792Z,71
2022-08-17T01:10:58.345Z,66
2022-08-17T01:11:15.746Z,67
2022-08-17T01:11:36.090Z,66
2022-08-17T01:12:04.617Z,92
2022-08-17T01:12:34.963Z,54
2022-08-17T01:13:07.456Z,103
2022-08-17T01:13:24.445Z,61
2022-08-17T01:13:41.815Z,65
2022-08-17T01:14:11.675Z,77
2022-08-17T01:14:34.958Z,77
2022-08-17T01:15:00.498Z,77
2022-08-17T01:15:33.553Z,115
2022-08-17T01:16:04.009Z,56
2022-08-17T01:16:36.875Z,80
2022-08-17T01:17:07.699Z,117
2022-08-17T01:17:34.971Z,54
2022-08-17T01:17:56.475Z,63
2022-08-17T01:18:27.726Z,99
2022-08-17T01:18:59.824Z,71
2022-08-17T01:19:31.810Z,12
2022-08-17T01:20:04.396Z,59
2022-08-17T01:20:47.884Z,60
2022-08-17T01:21:07.819Z,60
2022-08-17T01:21:35.668Z,44
2022-08-17T01:21:55.716Z,43
2022-08-17T01:22:27.687Z,48
2022-08-17T01:22:59.748Z,46
2022-08-17T01:23:31.833Z,76
2022-08-17T01:24:04.635Z,75
2022-08-17T01:24:35.000Z,54
2022-08-17T01:25:07.190Z,116
2022-08-17T01:25:24.196Z,46
2022-08-17T01:25:41.368Z,63
2022-08-17T01:26:11.777Z,66
2022-08-17T01:26:36.389Z,46
2022-08-17T01:26:59.832Z,142
2022-08-17T01:27:31.766Z,32
2022-08-17T01:28:04.017Z,109
2022-08-17T01:28:53.839Z,60
2022-08-17T01:29:07.750Z,36
2022-08-17T01:29:35.096Z,59
2022-08-17T01:29:55.763Z,72
2022-08-17T01:30:56.510Z,101
2022-08-17T01:31:00.688Z,111
2022-08-17T01:31:32.069Z,62
2022-08-17T01:32:04.548Z,44
2022-08-17T01:32:35.352Z,61
2022-08-17T01:32:52.838Z,114
2022-08-17T01:33:23.730Z,111
2022-08-17T01:33:42.257Z,108
2022-08-17T01:34:13.215Z,43
2022-08-17T01:34:42.557Z,44
2022-08-17T01:34:59.744Z,149
2022-08-17T01:35:33.062Z,59
2022-08-17T01:36:04.570Z,128
2022-08-17T01:36:36.098Z,87
2022-08-17T01:37:07.691Z,53
2022-08-17T01:37:35.702Z,53
2022-08-17T01:37:55.777Z,51
2022-08-17T01:38:27.793Z,53
2022-08-17T01:38:59.931Z,78
2022-08-17T01:39:31.733Z,62
2022-08-17T01:40:04.682Z,94
2022-08-17T01:40:35.833Z,94
2022-08-17T01:41:07.756Z,60
2022-08-17T01:41:36.764Z,55
2022-08-17T01:41:56.820Z,72
2022-08-17T01:42:27.852Z,138
2022-08-17T01:42:59.729Z,62
2022-08-17T01:43:31.818Z,29
2022-08-17T01:44:04.020Z,103
2022-08-17T01:44:34.998Z,97
2022-08-17T01:44:53.065Z,58
2022-08-17T01:45:23.947Z,95
2022-08-17T01:45:42.962Z,59
2022-08-17T01:46:11.632Z,48
2022-08-17T01:46:36.364Z,89
2022-08-17T01:46:59.710Z,91
2022-08-17T01:47:31.940Z,98
2022-08-17T01:48:05.729Z,44
2022-08-17T01:48:34.962Z,51
2022-08-17T01:48:51.448Z,61
2022-08-17T01:49:23.834Z,80
2022-08-17T01:49:40.989Z,92
2022-08-17T01:50:11.642Z,36
2022-08-17T01:50:34.999Z,85
2022-08-17T01:51:00.067Z,46
2022-08-17T01:51:31.697Z,61
2022-08-17T01:52:20.679Z,88
2022-08-17T01:52:37.947Z,87
2022-08-17T01:53:07.676Z,60
2022-08-17T01:53:34.982Z,60
2022-08-17T01:53:55.691Z,55
2022-08-17T01:54:27.718Z,79
2022-08-17T01:54:59.687Z,79
2022-08-17T01:55:33.203Z,47
2022-08-17T01:56:04.530Z,19
2022-08-17T01:56:34.952Z,19
2022-08-17T01:56:51.428Z,19
2022-08-17T01:57:23.642Z,36
2022-08-17T01:57:40.857Z,54
2022-08-17T01:58:11.727Z,53
2022-08-17T01:58:35.019Z,54
2022-08-17T01:58:59.746Z,53
2022-08-17T01:59:31.592Z,53
2022-08-17T02:00:04.962Z,53
2022-08-17T02:00:59.680Z,54
2022-08-17T02:01:08.372Z,54
2022-08-17T02:01:36.326Z,54
2022-08-17T02:01:55.821Z,54
2022-08-17T02:02:30.565Z,61
2022-08-17T02:02:59.695Z,79
2022-08-17T02:03:31.610Z,79
2022-08-17T02:04:04.038Z,79
2022-08-17T02:04:34.939Z,79
2022-08-17T02:04:51.405Z,66
2022-08-17T02:05:23.628Z,72
2022-08-17T02:05:42.677Z,57
2022-08-17T02:06:27.883Z,295
2022-08-17T02:06:45.022Z,79
2022-08-17T02:06:59.675Z,115
2022-08-17T02:07:31.683Z,88
2022-08-17T02:08:04.015Z,26
2022-08-17T02:08:38.761Z,61
2022-08-17T02:08:57.024Z,60
2022-08-17T02:09:25.862Z,61
2022-08-17T02:09:42.098Z,98
2022-08-17T02:10:20.141Z,162
2022-08-17T02:10:35.285Z,111
2022-08-17T02:10:59.793Z,55
2022-08-17T02:11:31.693Z,61
2022-08-17T02:12:37.432Z,67
2022-08-17T02:12:51.945Z,86
2022-08-17T02:13:23.646Z,59
2022-08-17T02:13:40.770Z,59
2022-08-17T02:14:11.612Z,81
2022-08-17T02:14:35.113Z,59
2022-08-17T02:14:59.887Z,8
2022-08-17T02:15:31.828Z,66
2022-08-17T02:16:04.020Z,37
2022-08-17T02:16:37.916Z,29
2022-08-17T02:17:07.733Z,68
2022-08-17T02:17:35.312Z,68
2022-08-17T02:17:58.661Z,68
2022-08-17T02:18:27.590Z,67
2022-08-17T02:19:00.768Z,68
2022-08-17T02:19:31.792Z,46
2022-08-17T02:20:04.655Z,10
2022-08-17T02:20:42.646Z,73
2022-08-17T02:20:51.472Z,79
2022-08-17T02:21:24.445Z,33
2022-08-17T02:21:43.020Z,65
2022-08-17T02:22:11.683Z,71
2022-08-17T02:22:35.261Z,72
2022-08-17T02:23:00.474Z,29
2022-08-17T02:23:31.789Z,46
2022-08-17T02:24:04.021Z,46
2022-08-17T02:25:00.454Z,73
2022-08-17T02:25:07.623Z,82
2022-08-17T02:25:35.076Z,57
2022-08-17T02:25:56.041Z,89
2022-08-17T02:26:29.304Z,88
2022-08-17T02:26:59.782Z,77
2022-08-17T02:27:31.838Z,60
2022-08-17T02:28:04.770Z,46
2022-08-17T02:28:34.979Z,48
2022-08-17T02:28:51.421Z,74
2022-08-17T02:29:23.612Z,78
2022-08-17T02:29:40.737Z,78
2022-08-17T02:31:00.067Z,84
2022-08-17T02:31:15.690Z,83
2022-08-17T02:31:35.073Z,83
2022-08-17T02:32:03.916Z,75
2022-08-17T02:32:35.026Z,107
2022-08-17T02:32:51.590Z,134
2022-08-17T02:33:23.569Z,83
2022-08-17T02:34:03.275Z,79
2022-08-17T02:34:27.645Z,65
2022-08-17T02:34:59.694Z,85
2022-08-17T02:35:31.640Z,60
2022-08-17T02:36:04.020Z,113
2022-08-17T02:36:35.615Z,98
2022-08-17T02:37:07.551Z,51
2022-08-17T02:37:35.014Z,49
2022-08-17T02:37:55.924Z,48
2022-08-17T02:38:27.660Z,65
2022-08-17T02:38:59.876Z,65
2022-08-17T02:39:31.634Z,64
2022-08-17T02:40:04.132Z,52
2022-08-17T02:40:36.692Z,53
2022-08-17T02:41:07.810Z,65
2022-08-17T02:41:35.106Z,75
2022-08-17T02:41:56.359Z,35
2022-08-17T02:42:28.374Z,116
2022-08-17T02:42:59.705Z,44
2022-08-17T02:43:31.627Z,47
2022-08-17T02:44:03.837Z,48
2022-08-17T02:44:39.792Z,48
2022-08-17T02:45:07.681Z,50
2022-08-17T02:45:35.023Z,50
2022-08-17T02:45:55.615Z,50
2022-08-17T02:46:27.616Z,48
2022-08-17T02:47:00.331Z,50
2022-08-17T02:47:31.597Z,50
2022-08-17T02:48:03.855Z,51
2022-08-17T02:48:35.003Z,54
2022-08-17T02:48:51.588Z,53
2022-08-17T02:49:24.238Z,53
2022-08-17T02:49:45.123Z,53
2022-08-17T02:50:13.028Z,4
2022-08-17T02:50:36.267Z,3
2022-08-17T02:51:00.276Z,2
2022-08-17T02:51:31.551Z,323
2022-08-17T02:52:04.440Z,262
2022-08-17T02:53:01.376Z,276
2022-08-17T02:53:07.895Z,242
2022-08-17T02:53:35.930Z,272
2022-08-17T02:54:05.284Z,235
2022-08-17T02:54:43.636Z,280
2022-08-17T02:55:15.714Z,256
2022-08-17T02:55:34.992Z,256
2022-08-17T02:56:04.326Z,257
2022-08-17T02:56:35.058Z,257
2022-08-17T02:56:51.450Z,257
2022-08-17T02:57:23.604Z,257
2022-08-17T02:57:40.785Z,257
2022-08-17T02:58:12.808Z,282
2022-08-17T02:58:36.186Z,282
2022-08-17T02:58:59.805Z,349
2022-08-17T02:59:31.717Z,349
2022-08-17T03:00:04.082Z,350
2022-08-17T03:00:35.122Z,349
2022-08-17T03:00:51.499Z,349
2022-08-17T03:01:23.456Z,349
2022-08-17T03:01:40.774Z,349
2022-08-17T03:02:13.432Z,342
2022-08-17T03:02:35.105Z,340
2022-08-17T03:02:59.706Z,338
2022-08-17T03:03:31.658Z,337
2022-08-17T03:04:04.221Z,335
2022-08-17T03:04:35.257Z,335
2022-08-17T03:04:52.747Z,335
2022-08-17T03:05:23.723Z,335
2022-08-17T03:05:41.042Z,335
2022-08-17T03:06:11.511Z,335
2022-08-17T03:06:35.308Z,335
2022-08-17T03:07:00.505Z,335
2022-08-17T03:07:31.590Z,335
2022-08-17T03:08:03.860Z,335
2022-08-17T03:08:36.278Z,335
2022-08-17T03:09:07.565Z,335
2022-08-17T03:09:34.994Z,335
2022-08-17T03:09:55.623Z,335
2022-08-17T03:10:27.571Z,335
2022-08-17T03:10:59.635Z,335
2022-08-17T03:11:32.003Z,335
2022-08-17T03:12:04.493Z,335
2022-08-17T03:12:35.236Z,336
2022-08-17T03:12:51.586Z,335
2022-08-17T03:13:23.638Z,335
2022-08-17T03:13:41.581Z,335
2022-08-17T03:14:11.520Z,336
2022-08-17T03:14:38.170Z,336
2022-08-17T03:15:01.528Z,337
2022-08-17T03:15:32.773Z,336
2022-08-17T03:16:03.944Z,336
2022-08-17T03:16:34.991Z,336
2022-08-17T03:16:51.380Z,336
2022-08-17T03:17:24.279Z,336
2022-08-17T03:17:41.423Z,336
2022-08-17T03:18:18.929Z,336
2022-08-17T03:18:36.301Z,337
2022-08-17T03:18:59.623Z,337
2022-08-17T03:19:32.674Z,336
2022-08-17T03:20:04.043Z,336
2022-08-17T03:20:35.000Z,336
2022-08-17T03:20:51.450Z,336
2022-08-17T03:21:23.559Z,336
2022-08-17T03:21:40.708Z,335
2022-08-17T03:22:36.165Z,336
2022-08-17T03:22:43.544Z,336
2022-08-17T03:23:15.579Z,336
2022-08-17T03:23:34.965Z,336
2022-08-17T03:24:08.728Z,336
2022-08-17T03:24:35.526Z,335
2022-08-17T03:25:10.649Z,335
2022-08-17T03:25:34.927Z,335
2022-08-17T03:25:55.699Z,335
2022-08-17T03:26:29.842Z,335
2022-08-17T03:26:59.568Z,335
2022-08-17T03:27:32.254Z,335
2022-08-17T03:28:04.444Z,335
2022-08-17T03:28:34.985Z,336
2022-08-17T03:28:51.397Z,335
2022-08-17T03:29:23.713Z,335
2022-08-17T03:29:40.690Z,335
2022-08-17T03:30:11.580Z,335
2022-08-17T03:30:36.306Z,335
2022-08-17T03:30:59.562Z,335
2022-08-17T03:31:32.829Z,335
2022-08-17T03:32:03.922Z,335
2022-08-17T03:32:37.122Z,335
2022-08-17T03:33:07.469Z,335
2022-08-17T03:33:34.993Z,335
2022-08-17T03:33:55.554Z,335
2022-08-17T03:34:27.637Z,335
2022-08-17T03:34:59.528Z,335
2022-08-17T03:35:31.634Z,335
2022-08-17T03:36:04.010Z,335
2022-08-17T03:36:36.280Z,335
2022-08-17T03:37:07.578Z,335
2022-08-17T03:37:35.679Z,335
2022-08-17T03:38:00.877Z,335
2022-08-17T03:38:27.504Z,335
2022-08-17T03:38:59.555Z,335
2022-08-17T03:39:31.652Z,335
2022-08-17T03:40:04.520Z,335
2022-08-17T03:40:57.059Z,335
2022-08-17T03:41:07.510Z,335
2022-08-17T03:41:35.234Z,335
2022-08-17T03:41:55.564Z,335
2022-08-17T03:42:31.870Z,335
2022-08-17T03:43:00.390Z,336
2022-08-17T03:43:31.504Z,336
2022-08-17T03:44:04.602Z,336
2022-08-17T03:44:35.337Z,336
2022-08-17T03:45:07.644Z,335
2022-08-17T03:45:35.003Z,335
2022-08-17T03:45:55.586Z,336
2022-08-17T03:46:35.102Z,336
2022-08-17T03:46:59.830Z,336
2022-08-17T03:47:33.045Z,336
2022-08-17T03:48:04.257Z,336
2022-08-17T03:48:35.981Z,336
2022-08-17T03:49:07.547Z,336
2022-08-17T03:49:36.095Z,336
2022-08-17T03:49:55.614Z,335
2022-08-17T03:50:27.523Z,335
2022-08-17T03:50:59.578Z,335
2022-08-17T03:51:33.557Z,335
2022-08-17T03:52:03.965Z,335
2022-08-17T03:52:35.640Z,335
2022-08-17T03:53:08.228Z,335
2022-08-17T03:53:35.073Z,335
2022-08-17T03:53:56.107Z,335
2022-08-17T03:54:27.496Z,335
2022-08-17T03:54:59.535Z,335
2022-08-17T03:55:36.292Z,335
2022-08-17T03:56:04.044Z,335
2022-08-17T03:56:35.134Z,335
2022-08-17T03:56:51.519Z,335
2022-08-17T03:57:23.586Z,335
2022-08-17T03:57:40.706Z,335
2022-08-17T03:58:12.367Z,336
2022-08-17T03:58:34.983Z,336
2022-08-17T03:58:59.718Z,335
2022-08-17T03:59:31.511Z,335
2022-08-17T04:00:04.189Z,335
2022-08-17T04:00:35.023Z,335
2022-08-17T04:00:51.478Z,335
2022-08-17T04:01:23.670Z,335
2022-08-17T04:01:40.829Z,335
2022-08-17T04:02:11.498Z,335
2022-08-17T04:02:38.185Z,335
2022-08-17T04:02:59.524Z,335
2022-08-17T04:03:31.520Z,335
2022-08-17T04:04:04.149Z,335
2022-08-17T04:04:34.962Z,335
2022-08-17T04:04:51.436Z,335
2022-08-17T04:05:23.700Z,335
2022-08-17T04:05:40.690Z,335
2022-08-17T04:06:11.487Z,335
2022-08-17T04:06:35.954Z,335
2022-08-17T04:06:59.518Z,335
2022-08-17T04:07:31.479Z,335
2022-08-17T04:08:05.326Z,335
2022-08-17T04:08:36.923Z,335
2022-08-17T04:09:07.513Z,335
2022-08-17T04:09:35.044Z,335
2022-08-17T04:09:55.908Z,336
2022-08-17T04:10:27.471Z,336
2022-08-17T04:10:59.589Z,335
2022-08-17T04:11:31.545Z,335
2022-08-17T04:12:05.051Z,335
2022-08-17T04:12:35.018Z,335
2022-08-17T04:12:51.705Z,335
2022-08-17T04:13:25.612Z,335
2022-08-17T04:13:43.415Z,335
2022-08-17T04:14:11.521Z,335
2022-08-17T04:14:35.011Z,335
2022-08-17T04:14:59.552Z,336
2022-08-17T04:15:32.636Z,336
2022-08-17T04:16:04.158Z,338
2022-08-17T04:16:35.633Z,35
2022-08-17T04:17:07.531Z,48
2022-08-17T04:17:35.848Z,46
2022-08-17T04:17:55.557Z,46
2022-08-17T04:18:28.499Z,46
2022-08-17T04:18:59.672Z,46
2022-08-17T04:19:31.615Z,46
2022-08-17T04:20:04.201Z,46
2022-08-17T04:20:35.661Z,46
2022-08-17T04:21:08.783Z,46
2022-08-17T04:21:34.975Z,46
2022-08-17T04:21:55.468Z,46
2022-08-17T04:22:30.753Z,46
2022-08-17T04:22:59.794Z,46
2022-08-17T04:23:34.079Z,48
2022-08-17T04:24:04.357Z,48
2022-08-17T04:24:35.120Z,48
2022-08-17T04:24:51.586Z,47
2022-08-17T04:25:23.885Z,48
2022-08-17T04:25:41.155Z,50
2022-08-17T04:26:11.573Z,49
2022-08-17T04:26:59.743Z,50
2022-08-17T04:27:31.788Z,68
2022-08-17T04:28:04.673Z,75
2022-08-17T04:28:36.607Z,76
2022-08-17T04:29:07.600Z,76
2022-08-17T04:29:55.055Z,75
2022-08-17T04:30:11.624Z,75
2022-08-17T04:30:35.246Z,76
2022-08-17T04:30:59.739Z,75
2022-08-17T04:31:31.656Z,75
2022-08-17T04:32:04.485Z,75
2022-08-17T04:33:19.178Z,75
2022-08-17T04:33:23.909Z,75
2022-08-17T04:33:41.505Z,75
2022-08-17T04:34:11.615Z,75
2022-08-17T04:34:36.543Z,75
2022-08-17T04:34:59.710Z,75
2022-08-17T04:35:31.666Z,75
2022-08-17T04:36:06.037Z,75
2022-08-17T04:36:35.289Z,75
2022-08-17T04:36:51.722Z,75
2022-08-17T04:37:23.776Z,75
2022-08-17T04:37:40.856Z,75
2022-08-17T04:38:11.620Z,75
2022-08-17T04:38:35.358Z,75
2022-08-17T04:38:59.697Z,75
2022-08-17T04:39:33.993Z,75
2022-08-17T04:40:04.626Z,75
2022-08-17T04:40:35.195Z,75
2022-08-17T04:40:51.572Z,75
2022-08-17T04:41:23.898Z,75
2022-08-17T04:41:40.828Z,75
2022-08-17T04:42:12.102Z,75
2022-08-17T04:42:36.229Z,75
2022-08-17T04:43:01.017Z,75
2022-08-17T04:43:32.770Z,75
2022-08-17T04:44:04.683Z,75
2022-08-17T04:44:37.434Z,75
2022-08-17T04:44:52.988Z,120
2022-08-17T04:45:24.152Z,95
2022-08-17T04:45:41.098Z,111
2022-08-17T04:46:11.655Z,111
2022-08-17T04:46:36.142Z,111
2022-08-17T04:46:59.784Z,113
2022-08-17T04:47:31.439Z,158
2022-08-17T04:48:05.365Z,120
2022-08-17T04:48:36.430Z,120
2022-08-17T04:48:51.569Z,120
2022-08-17T04:49:23.916Z,120
2022-08-17T04:49:40.866Z,120
2022-08-17T04:50:12.873Z,120
2022-08-17T04:50:35.300Z,120
2022-08-17T04:50:59.571Z,120
2022-08-17T04:51:31.456Z,120
2022-08-17T04:52:04.785Z,120
2022-08-17T04:52:43.692Z,120
2022-08-17T04:52:53.047Z,120
2022-08-17T04:53:24.518Z,120
2022-08-17T04:53:41.686Z,120
2022-08-17T04:54:13.165Z,252
2022-08-17T04:54:35.274Z,257
2022-08-17T04:54:59.745Z,228
2022-08-17T04:55:31.636Z,235
2022-08-17T04:56:04.547Z,239
2022-08-17T04:56:35.219Z,239
2022-08-17T04:56:51.619Z,254
2022-08-17T04:57:24.169Z,287
2022-08-17T04:57:45.029Z,177
2022-08-17T04:58:12.338Z,226
2022-08-17T04:58:35.199Z,228
2022-08-17T04:58:59.751Z,244
2022-08-17T04:59:31.609Z,238
2022-08-17T05:00:04.638Z,232
2022-08-17T05:00:35.203Z,329
2022-08-17T05:00:51.654Z,221
2022-08-17T05:01:24.550Z,248
2022-08-17T05:01:41.586Z,197
2022-08-17T05:02:11.671Z,156
2022-08-17T05:02:36.937Z,208
2022-08-17T05:02:59.715Z,219
2022-08-17T05:03:31.596Z,239
2022-08-17T05:04:21.079Z,219
2022-08-17T05:04:51.612Z,214
2022-08-17T05:05:23.999Z,288
2022-08-17T05:05:41.553Z,86
2022-08-17T05:06:11.585Z,153
2022-08-17T05:06:35.390Z,154
2022-08-17T05:06:59.724Z,36
2022-08-17T05:07:33.137Z,46
2022-08-17T05:08:04.463Z,15
2022-08-17T05:08:36.316Z,8
2022-08-17T05:09:07.575Z,333
2022-08-17T05:09:35.161Z,333
2022-08-17T05:09:55.826Z,288
2022-08-17T05:10:27.567Z,301
2022-08-17T05:11:00.452Z,305
2022-08-17T05:11:31.607Z,324
2022-08-17T05:12:04.778Z,325
2022-08-17T05:12:35.161Z,324
2022-08-17T05:12:51.825Z,328
2022-08-17T05:13:24.286Z,342
2022-08-17T05:13:43.564Z,342
2022-08-17T05:14:11.707Z,343
2022-08-17T05:14:35.164Z,342
2022-08-17T05:14:59.650Z,338
2022-08-17T05:15:33.187Z,335
2022-08-17T05:16:04.318Z,332
2022-08-17T05:16:35.684Z,332
2022-08-17T05:17:11.360Z,309
2022-08-17T05:17:35.153Z,309
2022-08-17T05:17:57.820Z,309
2022-08-17T05:18:29.297Z,261
2022-08-17T05:18:59.747Z,262
2022-08-17T05:19:31.558Z,24
2022-08-17T05:20:04.990Z,36
2022-08-17T05:20:35.175Z,36
2022-08-17T05:20:52.922Z,36
2022-08-17T05:21:23.940Z,35
2022-08-17T05:21:40.780Z,35
2022-08-17T05:22:11.591Z,321
2022-08-17T05:22:35.189Z,294
2022-08-17T05:22:59.651Z,295
2022-08-17T05:23:41.993Z,327
2022-08-17T05:24:09.686Z,342
2022-08-17T05:24:55.666Z,342
2022-08-17T05:25:25.611Z,342
2022-08-17T05:25:40.808Z,342
2022-08-17T05:26:17.953Z,341
2022-08-17T05:26:36.526Z,336
2022-08-17T05:27:06.577Z,332
2022-08-17T05:27:35.425Z,333
2022-08-17T05:28:04.481Z,333
2022-08-17T05:28:36.193Z,333
2022-08-17T05:29:07.639Z,334
2022-08-17T05:29:35.878Z,334
2022-08-17T05:29:55.790Z,334
2022-08-17T05:30:27.621Z,334
2022-08-17T05:30:59.671Z,354
2022-08-17T05:31:31.620Z,336
2022-08-17T05:32:04.113Z,338
2022-08-17T05:32:51.813Z,333
2022-08-17T05:33:24.189Z,5
2022-08-17T05:33:44.537Z,35
2022-08-17T05:34:11.574Z,36
2022-08-17T05:34:36.004Z,37
2022-08-17T05:34:59.632Z,18
2022-08-17T05:35:32.584Z,10
2022-08-17T05:36:04.166Z,348
2022-08-17T05:36:41.785Z,348
2022-08-17T05:36:51.618Z,303
2022-08-17T05:37:23.962Z,270
2022-08-17T05:37:41.533Z,294
2022-08-17T05:38:11.547Z,288
2022-08-17T05:38:36.865Z,288
2022-08-17T05:38:59.649Z,289
2022-08-17T05:39:31.596Z,288
2022-08-17T05:40:04.491Z,288
2022-08-17T05:40:36.110Z,288
2022-08-17T05:41:07.505Z,288
2022-08-17T05:41:36.121Z,288
2022-08-17T05:41:55.641Z,288
2022-08-17T05:42:28.558Z,288
2022-08-17T05:43:00.515Z,288
2022-08-17T05:43:32.611Z,288
2022-08-17T05:44:05.646Z,288
2022-08-17T05:44:36.153Z,288
2022-08-17T05:45:07.784Z,288
2022-08-17T05:45:54.904Z,288
2022-08-17T05:46:11.595Z,288
2022-08-17T05:46:35.277Z,288
2022-08-17T05:46:59.680Z,288
2022-08-17T05:47:31.502Z,288
2022-08-17T05:48:04.222Z,288
2022-08-17T05:48:39.223Z,288
2022-08-17T05:48:51.617Z,288
2022-08-17T05:49:23.905Z,288
2022-08-17T05:49:40.745Z,288
2022-08-17T05:50:11.526Z,288
2022-08-17T05:50:35.220Z,288
2022-08-17T05:50:59.653Z,288
2022-08-17T05:51:31.503Z,288
2022-08-17T05:52:04.328Z,288
2022-08-17T05:52:35.151Z,288
2022-08-17T05:52:51.813Z,288
2022-08-17T05:53:23.970Z,288
2022-08-17T05:53:40.714Z,288
2022-08-17T05:54:12.392Z,288
2022-08-17T05:54:35.298Z,288
2022-08-17T05:55:00.058Z,288
2022-08-17T05:55:31.543Z,288
2022-08-17T05:56:04.282Z,288
2022-08-17T05:56:35.202Z,288
2022-08-17T05:56:51.575Z,288
2022-08-17T05:57:23.933Z,288
2022-08-17T05:57:53.355Z,288
2022-08-17T05:58:11.585Z,288
2022-08-17T05:58:35.322Z,295
2022-08-17T05:59:04.716Z,284
2022-08-17T05:59:32.801Z,281
2022-08-17T06:00:04.573Z,248
2022-08-17T06:00:35.694Z,249
2022-08-17T06:01:07.682Z,279
2022-08-17T06:01:35.322Z,295
2022-08-17T06:01:56.484Z,305
2022-08-17T06:02:27.568Z,267
2022-08-17T06:02:59.969Z,231
2022-08-17T06:03:31.486Z,256
2022-08-17T06:04:04.249Z,234
2022-08-17T06:04:35.204Z,234
2022-08-17T06:04:51.583Z,234
2022-08-17T06:05:23.954Z,234
2022-08-17T06:05:41.744Z,234
2022-08-17T06:06:11.573Z,129
2022-08-17T06:06:35.259Z,129
2022-08-17T06:06:59.540Z,231
2022-08-17T06:07:31.554Z,289
2022-08-17T06:08:04.401Z,211
2022-08-17T06:08:35.165Z,247
2022-08-17T06:09:08.103Z,285
2022-08-17T06:09:35.662Z,275
2022-08-17T06:09:56.378Z,249
2022-08-17T06:10:27.549Z,285
2022-08-17T06:11:00.465Z,264
2022-08-17T06:11:32.758Z,277
2022-08-17T06:12:04.372Z,277
2022-08-17T06:12:35.452Z,277
2022-08-17T06:13:08.214Z,277
2022-08-17T06:13:36.458Z,277
2022-08-17T06:13:55.642Z,277
2022-08-17T06:14:28.233Z,277
2022-08-17T06:15:00.567Z,277
2022-08-17T06:15:31.478Z,277
2022-08-17T06:16:04.302Z,277
2022-08-17T06:16:35.155Z,276
2022-08-17T06:16:52.761Z,277
2022-08-17T06:17:23.881Z,277
2022-08-17T06:17:41.511Z,277
2022-08-17T06:18:13.795Z,276
2022-08-17T06:18:35.149Z,276
2022-08-17T06:18:59.622Z,209
2022-08-17T06:19:33.531Z,210
2022-08-17T06:20:04.381Z,210
2022-08-17T06:20:35.212Z,211
2022-08-17T06:20:51.678Z,300
2022-08-17T06:21:23.863Z,246
2022-08-17T06:21:40.714Z,211
2022-08-17T06:22:12.742Z,233
2022-08-17T06:22:35.221Z,233
2022-08-17T06:22:59.616Z,234
2022-08-17T06:23:31.464Z,234
2022-08-17T06:24:03.730Z,234
2022-08-17T06:24:37.354Z,234
2022-08-17T06:25:10.157Z,235
2022-08-17T06:25:36.339Z,235
2022-08-17T06:25:55.554Z,291
2022-08-17T06:26:34.527Z,291
2022-08-17T06:26:59.649Z,291
2022-08-17T06:27:31.429Z,291
2022-08-17T06:28:04.245Z,291
2022-08-17T06:28:36.057Z,291
2022-08-17T06:29:08.221Z,291
2022-08-17T06:29:35.255Z,291
2022-08-17T06:29:55.508Z,338
2022-08-17T06:30:27.567Z,346
2022-08-17T06:31:01.222Z,348
2022-08-17T06:31:31.469Z,348
2022-08-17T06:32:04.235Z,348
2022-08-17T06:32:37.093Z,348
2022-08-17T06:33:07.542Z,71
2022-08-17T06:33:35.216Z,70
2022-08-17T06:33:55.569Z,55
2022-08-17T06:34:27.503Z,54
2022-08-17T06:35:00.344Z,30
2022-08-17T06:35:33.438Z,17
2022-08-17T06:36:05.002Z,343
2022-08-17T06:36:35.773Z,342
2022-08-17T06:37:09.583Z,340
2022-08-17T06:37:35.274Z,338
2022-08-17T06:37:55.716Z,344
2022-08-17T06:38:38.382Z,350
2022-08-17T06:38:59.548Z,0